Time;durP1;ratioP1;P1;durP2;ratioP2;P2;SDS_P1;SDS_P2;PMS_P1;PMS_P2;Temp;Humidity;BMP_temperature;BMP_pressure;BME280_temperature;BME280_humidity;BME280_pressure;Samples;Min_cycle;Max_cycle;Signal;HPM_P1;HPM_P2
2021/09/29 00:01:55;;;;;;;2.60;2.50;;;;;;;2.73;90.95;101871.31;6430219;22;20032;-77
2021/09/29 00:04:40;;;;;;;4.18;3.97;;;;;;;2.86;91.03;101880.00;6429570;22;20051;-77
2021/09/29 00:07:24;;;;;;;5.53;3.05;;;;;;;2.91;91.44;101881.78;6428556;22;20565;-78
2021/09/29 00:10:10;;;;;;;2.88;2.78;;;;;;;2.92;91.45;101875.78;6428697;22;20028;-77
2021/09/29 00:12:54;;;;;;;5.10;4.70;;;;;;;3.00;91.49;101883.59;6403532;22;20025;-77
2021/09/29 00:15:38;;;;;;;4.10;3.67;;;;;;;2.93;91.36;101887.81;6397635;22;20029;-78
2021/09/29 00:18:23;;;;;;;5.28;4.95;;;;;;;2.94;91.14;101883.53;6397743;22;20064;-77
2021/09/29 00:21:08;;;;;;;5.78;5.25;;;;;;;2.78;91.46;101882.50;6397764;22;20417;-76
2021/09/29 00:23:52;;;;;;;3.13;3.00;;;;;;;2.61;91.04;101884.97;6397929;22;20111;-77
2021/09/29 00:26:37;;;;;;;16.75;6.43;;;;;;;2.48;91.07;101882.22;6396127;22;20033;-76
2021/09/29 00:29:21;;;;;;;3.55;3.17;;;;;;;2.36;91.04;101887.22;6374219;22;20159;-75
2021/09/29 00:32:07;;;;;;;3.88;3.67;;;;;;;2.21;90.79;101884.47;6397722;22;20102;-74
2021/09/29 00:34:52;;;;;;;12.75;7.97;;;;;;;2.13;91.31;101886.94;6397753;22;20024;-75
2021/09/29 00:37:36;;;;;;;4.32;4.03;;;;;;;2.24;91.40;101885.38;6396222;22;20091;-75
2021/09/29 00:40:20;;;;;;;6.35;5.80;;;;;;;2.83;92.01;101886.00;6396179;22;20408;-74
2021/09/29 00:43:05;;;;;;;10.38;4.53;;;;;;;2.79;91.95;101886.81;6397728;22;20139;-74
2021/09/29 00:45:49;;;;;;;4.03;3.53;;;;;;;2.52;91.47;101889.16;6397291;22;20070;-76
2021/09/29 00:48:34;;;;;;;29.15;3.47;;;;;;;2.39;91.25;101888.13;6397524;22;20045;-75
2021/09/29 00:51:18;;;;;;;5.45;4.85;;;;;;;2.51;91.21;101892.56;6397663;22;20056;-77
2021/09/29 00:54:04;;;;;;;3.45;3.35;;;;;;;2.68;91.72;101883.31;6397740;22;20044;-74
2021/09/29 00:56:51;;;;;;;1.85;1.75;;;;;;;2.55;91.14;101884.03;6397274;22;20106;-76
2021/09/29 00:59:36;;;;;;;2.47;2.38;;;;;;;2.38;90.90;101881.25;6397402;22;20406;-76
2021/09/29 01:02:24;;;;;;;2.63;2.53;;;;;;;2.42;90.88;101890.72;6397562;22;20029;-76
2021/09/29 01:05:10;;;;;;;13.00;3.30;;;;;;;2.24;91.11;101890.53;6396461;22;20540;-74
2021/09/29 01:08:03;;;;;;;3.20;2.92;;;;;;;2.12;90.84;101892.09;6374362;22;20106;-76
2021/09/29 01:11:03;;;;;;;4.00;2.30;;;;;;;2.04;90.89;101892.88;6396982;22;20484;-74
2021/09/29 01:14:11;;;;;;;9.70;3.08;;;;;;;2.05;91.58;101886.88;6399308;22;20090;-74
2021/09/29 01:16:57;;;;;;;5.20;2.88;;;;;;;2.02;90.88;101881.69;6397852;22;20083;-76
2021/09/29 01:20:08;;;;;;;2.17;2.17;;;;;;;2.03;91.50;101885.97;6399139;22;20118;-76
2021/09/29 01:23:02;;;;;;;1.70;1.70;;;;;;;2.15;92.01;101884.41;6399406;22;20033;-75
2021/09/29 01:25:53;;;;;;;8.52;4.78;;;;;;;2.51;92.19;101880.56;6399058;22;20068;-76
2021/09/29 01:28:56;;;;;;;3.60;3.38;;;;;;;2.55;91.95;101873.72;6399144;22;20066;-75
2021/09/29 01:31:40;;;;;;;3.58;3.28;;;;;;;2.66;91.98;101879.81;6375090;22;20058;-74
2021/09/29 01:34:25;;;;;;;2.47;2.33;;;;;;;2.57;91.56;101877.16;6397856;22;20434;-77
2021/09/29 01:37:10;;;;;;;4.00;3.80;;;;;;;2.80;91.25;101869.66;6397806;22;20032;-75
2021/09/29 01:39:55;;;;;;;2.28;2.05;;;;;;;2.96;91.17;101876.66;6399025;22;20491;-76
2021/09/29 01:42:40;;;;;;;3.97;2.17;;;;;;;2.96;90.53;101869.78;6399342;22;20381;-75
2021/09/29 01:45:24;;;;;;;3.17;2.95;;;;;;;2.98;89.98;101880.97;6399370;22;20519;-75
2021/09/29 01:48:09;;;;;;;3.13;2.80;;;;;;;2.99;89.79;101877.56;6399459;22;20422;-76
2021/09/29 01:50:58;;;;;;;3.47;3.25;;;;;;;3.00;89.63;101874.13;6398924;22;20028;-75
2021/09/29 01:53:43;;;;;;;3.10;2.83;;;;;;;3.00;89.65;101878.44;6398793;22;20114;-77
2021/09/29 01:56:27;;;;;;;3.03;2.83;;;;;;;2.90;89.54;101877.50;6375111;22;20090;-76
2021/09/29 01:59:12;;;;;;;4.13;3.53;;;;;;;2.86;89.51;101880.88;6375544;22;20055;-77
2021/09/29 02:01:56;;;;;;;3.58;3.25;;;;;;;2.82;89.66;101881.69;6396949;22;20043;-76
2021/09/29 02:04:47;;;;;;;2.75;2.53;;;;;;;2.90;89.97;101877.50;6398405;22;20071;-74
2021/09/29 02:07:31;;;;;;;14.27;3.53;;;;;;;2.91;89.37;101881.78;6398932;22;20052;-81
2021/09/29 02:10:16;;;;;;;2.72;2.63;;;;;;;2.88;89.80;101874.00;6399054;22;20028;-77
2021/09/29 02:13:00;;;;;;;5.20;4.30;;;;;;;2.95;89.31;101883.53;6399082;22;20364;-77
2021/09/29 02:15:45;;;;;;;4.20;3.38;;;;;;;2.97;89.56;101887.00;6398497;22;20028;-80
2021/09/29 02:18:29;;;;;;;5.22;3.35;;;;;;;2.97;89.79;101879.28;6420229;22;20031;-79
2021/09/29 02:21:14;;;;;;;5.38;5.00;;;;;;;2.99;89.59;101882.72;6398814;22;20093;-76
2021/09/29 02:23:58;;;;;;;10.60;6.80;;;;;;;2.96;89.71;101884.41;6399031;22;20032;-79
2021/09/29 02:26:43;;;;;;;3.22;3.03;;;;;;;2.93;89.44;101884.38;6398372;22;20029;-77
2021/09/29 02:29:28;;;;;;;3.40;3.30;;;;;;;2.81;89.66;101882.56;6398501;22;20028;-78
2021/09/29 02:32:12;;;;;;;2.70;2.60;;;;;;;2.76;90.08;101884.22;6396531;22;20025;-78
2021/09/29 02:34:57;;;;;;;4.35;4.07;;;;;;;2.56;89.56;101881.44;6397095;22;20059;-79
2021/09/29 02:37:42;;;;;;;3.92;3.67;;;;;;;2.63;90.04;101882.38;6398344;22;20064;-77
2021/09/29 02:40:26;;;;;;;3.42;3.13;;;;;;;2.52;90.25;101884.00;6413797;22;20051;-82
2021/09/29 02:43:11;;;;;;;7.88;3.45;;;;;;;2.36;90.15;101885.50;6426406;22;20086;-87
2021/09/29 02:45:55;;;;;;;6.10;5.70;;;;;;;2.44;90.56;101876.16;6411761;22;20029;-78
2021/09/29 02:48:40;;;;;;;4.55;4.25;;;;;;;2.53;91.16;101880.53;6398660;22;20061;-75
2021/09/29 02:51:24;;;;;;;6.18;5.57;;;;;;;2.47;91.13;101888.22;6397405;22;20065;-76
2021/09/29 02:54:09;;;;;;;6.68;4.85;;;;;;;2.56;91.31;101886.59;6398815;22;20029;-77
2021/09/29 02:56:54;;;;;;;3.28;3.15;;;;;;;2.51;91.38;101897.72;6410223;22;20105;-76
2021/09/29 02:59:38;;;;;;;3.00;2.80;;;;;;;2.46;91.42;101895.09;6414872;22;20028;-77
2021/09/29 03:02:23;;;;;;;2.03;2.03;;;;;;;2.26;90.94;101890.56;6415523;22;20028;-78
2021/09/29 03:05:08;;;;;;;7.45;6.18;;;;;;;2.21;91.09;101894.78;6400042;22;20410;-77
2021/09/29 03:07:52;;;;;;;12.73;3.88;;;;;;;2.24;91.44;101898.28;6399455;22;20028;-77
2021/09/29 03:10:38;;;;;;;4.10;3.83;;;;;;;2.45;91.71;101897.66;6397646;22;20028;-76
2021/09/29 03:13:22;;;;;;;2.58;2.47;;;;;;;2.46;91.50;101897.66;6398880;22;20028;-78
2021/09/29 03:16:07;;;;;;;4.25;3.90;;;;;;;2.49;91.80;101905.41;6398416;22;20123;-77
2021/09/29 03:18:52;;;;;;;3.85;3.65;;;;;;;2.52;91.47;101904.63;6374425;22;20526;-77
2021/09/29 03:21:37;;;;;;;6.95;5.07;;;;;;;2.63;91.75;101906.44;6398167;22;20090;-78
2021/09/29 03:24:21;;;;;;;2.22;2.13;;;;;;;2.61;91.24;101904.72;6398254;22;20476;-78
2021/09/29 03:27:06;;;;;;;2.65;2.55;;;;;;;2.54;91.52;101903.78;6398118;22;20028;-78
2021/09/29 03:29:50;;;;;;;2.25;2.20;;;;;;;2.61;91.84;101910.72;6398825;22;20101;-79
2021/09/29 03:32:34;;;;;;;4.10;3.90;;;;;;;2.65;91.82;101906.44;6397709;22;20037;-79
2021/09/29 03:35:19;;;;;;;3.45;3.13;;;;;;;2.70;91.40;101899.63;6396829;22;20027;-76
2021/09/29 03:38:03;;;;;;;2.97;2.58;;;;;;;2.86;91.00;101891.19;6396923;22;20029;-76
2021/09/29 03:40:48;;;;;;;5.30;4.88;;;;;;;3.00;90.55;101907.69;6397956;22;20418;-77
2021/09/29 03:43:32;;;;;;;3.67;3.42;;;;;;;3.02;89.98;101905.97;6398243;22;20470;-78
2021/09/29 03:46:18;;;;;;;3.60;3.40;;;;;;;3.05;89.51;101902.53;6398658;22;20029;-83
2021/09/29 03:49:05;;;;;;;2.15;2.08;;;;;;;3.08;89.40;101907.72;6401950;22;20028;-82
2021/09/29 03:51:49;;;;;;;5.10;4.80;;;;;;;3.24;89.49;101912.16;6398087;22;20028;-79
2021/09/29 03:54:34;;;;;;;3.13;2.92;;;;;;;3.30;88.81;101908.78;6401331;22;20033;-83
